Time;durP1;ratioP1;P1;durP2;ratioP2;P2;SDS_P1;SDS_P2;PMS_P1;PMS_P2;Temp;Humidity;BMP_temperature;BMP_pressure;BME280_temperature;BME280_humidity;BME280_pressure;Samples;Min_cycle;Max_cycle;Signal;HPM_P1;HPM_P2
2022/05/01 00:01:18;;;;;;;16.27;12.93;;;11.40;96.20;;;;;;5012757;28;20220;-67
2022/05/01 00:03:44;;;;;;;14.00;12.63;;;11.40;96.10;;;;;;5012733;28;20418;-67
2022/05/01 00:06:11;;;;;;;15.50;13.23;;;11.40;96.00;;;;;;5010918;28;20905;-67
2022/05/01 00:08:40;;;;;;;13.13;11.83;;;11.30;96.60;;;;;;5012374;28;20418;-67
2022/05/01 00:11:08;;;;;;;13.67;12.20;;;11.20;96.40;;;;;;5010955;28;20436;-67
2022/05/01 00:13:34;;;;;;;14.20;12.70;;;11.20;96.60;;;;;;5011438;28;20412;-67
2022/05/01 00:16:00;;;;;;;13.43;12.03;;;11.10;96.90;;;;;;5011914;28;20780;-67
2022/05/01 00:18:25;;;;;;;12.53;11.23;;;11.10;97.00;;;;;;5012972;28;20438;-67
2022/05/01 00:20:51;;;;;;;12.90;11.67;;;11.10;96.90;;;;;;5012526;28;20535;-85
2022/05/01 00:23:18;;;;;;;13.93;12.63;;;11.10;96.60;;;;;;5012234;28;20179;-67
2022/05/01 00:25:45;;;;;;;13.53;12.23;;;11.10;96.60;;;;;;5015006;28;20426;-67
2022/05/01 00:28:14;;;;;;;16.47;12.93;;;11.00;96.80;;;;;;5015697;28;20410;-67
2022/05/01 00:30:41;;;;;;;13.07;11.87;;;11.00;96.80;;;;;;5015979;28;20535;-67
2022/05/01 00:38:36;;;;;;;14.13;12.73;;;10.90;97.00;;;;;;5014927;28;20894;-67
2022/05/01 00:41:04;;;;;;;14.13;12.60;;;10.80;96.80;;;;;;5015212;28;20758;-67
2022/05/01 00:43:31;;;;;;;14.50;13.00;;;10.80;97.10;;;;;;5015959;28;20493;-67
2022/05/01 00:45:57;;;;;;;14.37;12.87;;;10.80;97.40;;;;;;5014083;28;21011;-67
2022/05/01 00:48:23;;;;;;;14.93;13.00;;;10.80;97.40;;;;;;5015940;28;20545;-67
2022/05/01 00:50:51;;;;;;;13.80;12.50;;;10.70;97.50;;;;;;5015627;28;20543;-67
2022/05/01 00:53:17;;;;;;;14.53;13.00;;;10.70;97.60;;;;;;5015198;28;20433;-67
2022/05/01 00:55:42;;;;;;;16.07;12.83;;;10.70;97.80;;;;;;5015786;28;20432;-67
2022/05/01 00:58:08;;;;;;;14.53;12.50;;;10.70;98.00;;;;;;5015162;28;20732;-67
2022/05/01 01:00:34;;;;;;;13.47;12.17;;;10.60;98.00;;;;;;5015839;28;20190;-67
2022/05/01 01:03:01;;;;;;;12.57;11.47;;;10.60;97.90;;;;;;5013788;28;20422;-67
2022/05/01 01:05:27;;;;;;;12.70;11.50;;;10.50;97.90;;;;;;5014316;28;20424;-67
2022/05/01 01:07:53;;;;;;;14.63;13.23;;;10.60;98.20;;;;;;5014639;28;20422;-67
2022/05/01 01:10:19;;;;;;;13.47;12.23;;;10.60;98.00;;;;;;5014892;28;20433;-67
2022/05/01 01:12:54;;;;;;;14.23;12.73;;;10.50;98.10;;;;;;5015581;28;20426;-67
2022/05/01 01:15:28;;;;;;;14.07;12.53;;;10.50;98.10;;;;;;5015528;28;20469;-67
2022/05/01 01:17:55;;;;;;;14.47;11.93;;;10.50;98.10;;;;;;5015542;28;20490;-67
2022/05/01 01:20:27;;;;;;;14.47;12.97;;;10.40;98.10;;;;;;5015297;28;20456;-67
2022/05/01 01:22:55;;;;;;;14.80;13.30;;;10.40;98.30;;;;;;5015387;28;20441;-67
2022/05/01 01:25:24;;;;;;;13.80;12.40;;;10.40;98.50;;;;;;5015356;28;20429;-67
2022/05/01 01:27:51;;;;;;;13.73;12.07;;;10.30;98.30;;;;;;5013976;28;20819;-67
2022/05/01 01:33:03;;;;;;;13.97;12.53;;;10.30;98.30;;;;;;5014593;28;20457;-67
2022/05/01 01:35:29;;;;;;;13.47;12.20;;;10.30;98.40;;;;;;5012619;28;20455;-67
2022/05/01 01:37:56;;;;;;;14.60;12.47;;;10.20;98.50;;;;;;5014916;28;20471;-67
2022/05/01 01:40:30;;;;;;;13.23;12.03;;;10.20;98.60;;;;;;5014666;28;20423;-67
2022/05/01 01:42:57;;;;;;;14.20;12.73;;;10.20;98.70;;;;;;5014689;28;20425;-87
2022/05/01 01:45:28;;;;;;;14.70;12.30;;;10.20;98.80;;;;;;5014874;28;20441;-67
2022/05/01 01:47:55;;;;;;;16.87;13.17;;;10.10;98.80;;;;;;5014649;28;20470;-66
2022/05/01 01:50:20;;;;;;;15.10;12.47;;;10.10;99.00;;;;;;5014213;28;20417;-67
2022/05/01 01:52:47;;;;;;;14.00;10.83;;;10.10;99.20;;;;;;5014639;28;20444;-67
2022/05/01 01:55:17;;;;;;;13.80;12.27;;;10.10;99.00;;;;;;5014093;28;20173;-67
2022/05/01 01:57:45;;;;;;;14.30;12.20;;;10.00;98.90;;;;;;5014624;28;20546;-67
2022/05/01 02:00:12;;;;;;;13.90;12.20;;;10.00;98.70;;;;;;5014257;28;20783;-67
2022/05/01 02:02:38;;;;;;;13.47;12.00;;;9.90;99.00;;;;;;5014529;28;20427;-67
2022/05/01 02:05:05;;;;;;;12.13;10.93;;;9.90;99.30;;;;;;5013596;28;20428;-67
2022/05/01 02:07:31;;;;;;;13.17;11.70;;;9.90;99.40;;;;;;5014112;28;20514;-67
2022/05/01 02:10:00;;;;;;;12.90;11.47;;;9.90;99.60;;;;;;5014421;28;20631;-67
2022/05/01 02:12:27;;;;;;;14.00;11.90;;;9.90;99.70;;;;;;5014317;28;20444;-67
2022/05/01 02:14:53;;;;;;;13.17;11.83;;;10.00;99.20;;;;;;5014015;28;20412;-67
2022/05/01 02:17:20;;;;;;;13.63;12.00;;;9.90;99.70;;;;;;5013371;28;20882;-67
2022/05/01 02:19:46;;;;;;;13.50;11.90;;;9.90;99.70;;;;;;5013939;28;20513;-67
2022/05/01 02:22:14;;;;;;;14.40;12.90;;;9.90;99.70;;;;;;5013853;28;20414;-68
2022/05/01 02:24:40;;;;;;;13.00;11.60;;;9.90;99.80;;;;;;5014131;28;20403;-67
2022/05/01 02:27:05;;;;;;;13.43;12.13;;;9.80;99.80;;;;;;5013203;28;20406;-67
2022/05/01 02:29:31;;;;;;;15.63;12.70;;;9.80;99.60;;;;;;5013777;28;20183;-67
2022/05/01 02:31:57;;;;;;;12.40;11.10;;;9.80;99.70;;;;;;5013981;28;20175;-67
2022/05/01 02:34:23;;;;;;;12.90;11.60;;;9.70;99.70;;;;;;5012394;28;20267;-67
2022/05/01 02:36:51;;;;;;;16.20;12.20;;;9.70;99.60;;;;;;5013789;28;20644;-67
2022/05/01 02:39:21;;;;;;;15.47;12.47;;;9.70;99.70;;;;;;5013506;28;20416;-67
2022/05/01 02:41:48;;;;;;;12.60;11.30;;;9.60;99.80;;;;;;5012788;28;20406;-67
2022/05/01 02:44:13;;;;;;;12.60;11.30;;;9.60;99.90;;;;;;5013134;28;20510;-67
2022/05/01 02:46:39;;;;;;;13.27;11.50;;;9.60;99.90;;;;;;5012394;28;20518;-67
2022/05/01 02:49:05;;;;;;;13.33;11.93;;;9.60;99.90;;;;;;5013211;28;20227;-68
2022/05/01 02:51:34;;;;;;;14.63;12.40;;;9.60;99.90;;;;;;5013640;28;20206;-67
2022/05/01 02:54:04;;;;;;;13.43;12.03;;;9.50;99.90;;;;;;5013682;28;20434;-67
2022/05/01 02:56:33;;;;;;;13.60;12.20;;;9.50;99.90;;;;;;4995860;28;20486;-67
2022/05/01 02:59:02;;;;;;;15.13;12.43;;;9.60;99.90;;;;;;5013474;28;20779;-67
2022/05/01 03:01:29;;;;;;;14.67;12.73;;;9.50;99.90;;;;;;5013711;28;20415;-67
2022/05/01 03:03:55;;;;;;;13.73;12.30;;;9.60;99.90;;;;;;5013449;28;20443;-67
2022/05/01 03:06:21;;;;;;;15.13;13.03;;;9.60;99.90;;;;;;5012537;28;21212;-67
2022/05/01 03:08:47;;;;;;;14.83;13.33;;;9.70;99.90;;;;;;5013396;28;20418;-67
2022/05/01 03:11:13;;;;;;;14.60;13.10;;;9.60;99.90;;;;;;5012737;28;20407;-67
2022/05/01 03:13:39;;;;;;;14.60;13.10;;;9.60;99.90;;;;;;5013729;28;20934;-67
2022/05/01 03:16:04;;;;;;;14.10;12.70;;;9.60;99.90;;;;;;5012332;28;20422;-67
2022/05/01 03:24:18;;;;;;;13.47;12.10;;;9.70;99.90;;;;;;4971100;28;20976;-67
2022/05/01 03:26:43;;;;;;;14.47;12.93;;;9.70;99.90;;;;;;5004998;28;20805;-67
2022/05/01 03:29:10;;;;;;;13.90;12.47;;;9.70;99.90;;;;;;5012187;28;20419;-67
2022/05/01 03:31:37;;;;;;;15.17;13.33;;;9.80;99.90;;;;;;5013023;28;20179;-67
2022/05/01 03:34:04;;;;;;;13.67;12.13;;;9.80;99.90;;;;;;5012479;28;20414;-87
2022/05/01 03:36:30;;;;;;;15.33;12.73;;;9.90;99.90;;;;;;5011749;28;20991;-68
2022/05/01 03:38:56;;;;;;;14.43;12.70;;;9.90;99.90;;;;;;5013019;28;20414;-67
2022/05/01 03:41:22;;;;;;;14.50;12.37;;;9.90;99.90;;;;;;5012009;28;20415;-67
2022/05/01 03:43:48;;;;;;;13.30;11.90;;;9.90;99.90;;;;;;5012985;28;20775;-67
2022/05/01 03:46:13;;;;;;;14.00;11.77;;;9.90;99.90;;;;;;5012366;28;20415;-67
2022/05/01 03:48:39;;;;;;;13.80;12.30;;;9.80;99.90;;;;;;5012220;28;20237;-67
2022/05/01 03:51:06;;;;;;;14.53;12.30;;;9.90;99.90;;;;;;4994904;28;20191;-68
2022/05/01 03:53:31;;;;;;;13.97;11.90;;;9.90;99.90;;;;;;5011547;28;20772;-67
2022/05/01 03:55:57;;;;;;;17.00;13.60;;;9.90;99.90;;;;;;5013052;28;20513;-67
2022/05/01 03:58:23;;;;;;;14.60;12.97;;;9.90;99.90;;;;;;5012338;28;20249;-68
2022/05/01 04:00:50;;;;;;;14.10;10.90;;;9.90;99.90;;;;;;5016562;28;20454;-66
2022/05/01 04:03:17;;;;;;;16.23;12.07;;;9.90;99.90;;;;;;5015968;28;20915;-67
2022/05/01 04:05:43;;;;;;;13.80;12.10;;;9.90;99.90;;;;;;5016915;28;20452;-67
2022/05/01 04:08:09;;;;;;;13.10;11.80;;;9.90;99.90;;;;;;5016111;28;20793;-67
2022/05/01 04:10:41;;;;;;;14.60;12.00;;;10.00;99.90;;;;;;5016645;28;20420;-66
2022/05/01 04:13:06;;;;;;;13.83;11.87;;;9.90;99.90;;;;;;5016016;28;20415;-68
2022/05/01 04:15:32;;;;;;;13.07;11.60;;;9.90;99.90;;;;;;5016477;28;20409;-67
2022/05/01 04:17:58;;;;;;;14.20;12.70;;;9.90;99.90;;;;;;5016795;28;20967;-66
2022/05/01 04:20:25;;;;;;;13.60;12.20;;;9.80;99.90;;;;;;5014705;28;20186;-67
2022/05/01 04:22:51;;;;;;;16.80;12.80;;;9.80;99.90;;;;;;5016107;28;20449;-67
2022/05/01 04:25:18;;;;;;;12.87;11.57;;;9.70;99.90;;;;;;5015795;28;20457;-67
2022/05/01 04:27:45;;;;;;;13.70;12.30;;;9.80;99.90;;;;;;5016341;28;20456;-66
2022/05/01 04:30:13;;;;;;;13.63;11.67;;;9.70;99.90;;;;;;5015891;28;20875;-67
2022/05/01 04:32:55;;;;;;;14.00;11.63;;;9.70;99.90;;;;;;5016382;28;20441;-66
2022/05/01 04:35:28;;;;;;;13.67;12.00;;;9.70;99.90;;;;;;5015906;28;20425;-67
2022/05/01 04:37:56;;;;;;;15.50;11.80;;;9.50;99.90;;;;;;5016272;28;20513;-67
2022/05/01 04:40:22;;;;;;;12.50;11.27;;;9.60;99.90;;;;;;5015758;28;20505;-66
2022/05/01 04:42:48;;;;;;;14.37;11.53;;;9.70;99.90;;;;;;5014958;28;20407;-67
2022/05/01 04:45:13;;;;;;;13.47;11.90;;;9.60;99.90;;;;;;5014113;28;20496;-67
2022/05/01 04:47:40;;;;;;;13.13;11.73;;;9.70;99.90;;;;;;5014965;28;20609;-66
2022/05/01 04:50:06;;;;;;;13.00;11.33;;;9.70;99.90;;;;;;5016214;28;20223;-66
2022/05/01 04:52:35;;;;;;;15.63;12.70;;;9.70;99.90;;;;;;5015547;28;20500;-67
2022/05/01 04:55:01;;;;;;;12.93;11.57;;;9.70;99.90;;;;;;5015968;28;20421;-67
2022/05/01 04:57:27;;;;;;;14.03;11.80;;;9.80;99.90;;;;;;5015075;28;20461;-66
2022/05/01 04:59:52;;;;;;;15.10;12.67;;;9.70;99.90;;;;;;5015464;28;20234;-66
2022/05/01 05:02:18;;;;;;;13.07;11.77;;;9.70;99.90;;;;;;5014805;28;20171;-67
2022/05/01 05:04:44;;;;;;;13.80;12.00;;;9.80;99.90;;;;;;5015989;28;20175;-67
2022/05/01 05:07:10;;;;;;;12.97;11.60;;;9.80;99.90;;;;;;5015002;28;20251;-68
2022/05/01 05:09:54;;;;;;;13.67;12.27;;;9.80;99.90;;;;;;5013895;28;20902;-67
2022/05/01 05:12:22;;;;;;;15.37;12.70;;;9.90;99.90;;;;;;5014367;28;20415;-67
2022/05/01 05:14:51;;;;;;;17.23;12.93;;;9.90;99.90;;;;;;5013960;28;20772;-67
2022/05/01 05:17:18;;;;;;;15.00;12.30;;;9.90;99.90;;;;;;5014355;28;20523;-67
2022/05/01 05:19:47;;;;;;;16.57;13.60;;;10.00;99.90;;;;;;5015224;28;20414;-66
2022/05/01 05:22:14;;;;;;;14.43;12.77;;;10.00;99.90;;;;;;5014807;28;20874;-67
2022/05/01 05:24:40;;;;;;;14.70;13.00;;;10.10;99.90;;;;;;5015049;28;20859;-67
2022/05/01 05:27:06;;;;;;;15.40;13.80;;;10.20;99.90;;;;;;5014985;28;20510;-66
2022/05/01 05:29:31;;;;;;;15.80;13.63;;;10.30;99.90;;;;;;5014358;28;20252;-67
2022/05/01 05:31:57;;;;;;;15.60;13.33;;;10.40;99.90;;;;;;5015160;28;20423;-67
2022/05/01 05:34:23;;;;;;;15.97;14.40;;;10.40;99.90;;;;;;5014265;28;20628;-67
2022/05/01 05:36:48;;;;;;;15.80;14.13;;;10.50;99.90;;;;;;5013564;28;20218;-67
2022/05/01 05:39:14;;;;;;;20.00;13.80;;;10.60;99.90;;;;;;5014377;28;20191;-67
2022/05/01 05:41:40;;;;;;;14.80;13.17;;;10.70;99.90;;;;;;5014941;28;20182;-67
2022/05/01 05:44:06;;;;;;;14.70;13.13;;;10.70;99.90;;;;;;5014883;28;20182;-67
2022/05/01 05:46:33;;;;;;;16.90;13.70;;;10.80;99.90;;;;;;5014142;28;20480;-67
2022/05/01 05:48:58;;;;;;;19.30;14.90;;;10.90;99.90;;;;;;5015043;28;20459;-66
2022/05/01 05:51:24;;;;;;;16.67;14.87;;;10.90;99.40;;;;;;5014211;28;20431;-66
2022/05/01 05:53:51;;;;;;;16.57;13.67;;;11.00;99.40;;;;;;5014692;28;20188;-67
2022/05/01 05:56:17;;;;;;;16.50;14.90;;;11.10;99.00;;;;;;5013549;28;20585;-67
2022/05/01 05:58:43;;;;;;;16.37;13.67;;;11.10;99.20;;;;;;5014840;28;20899;-67
2022/05/01 06:01:10;;;;;;;14.67;13.00;;;11.20;99.20;;;;;;5014413;28;20421;-67
2022/05/01 06:03:36;;;;;;;15.87;13.43;;;11.30;98.90;;;;;;5013917;28;20722;-67
2022/05/01 06:06:02;;;;;;;17.20;15.00;;;11.30;98.80;;;;;;5014256;28;20500;-67
2022/05/01 06:08:28;;;;;;;15.40;13.80;;;11.40;98.80;;;;;;5013833;28;20499;-67
2022/05/01 06:10:54;;;;;;;16.30;13.70;;;11.50;99.10;;;;;;5014333;28;20508;-67
2022/05/01 06:13:19;;;;;;;19.13;14.77;;;11.40;98.80;;;;;;5014024;28;20199;-67
2022/05/01 06:15:46;;;;;;;14.87;13.37;;;11.50;99.00;;;;;;5014247;28;20213;-66
2022/05/01 06:18:12;;;;;;;15.00;13.50;;;11.50;99.00;;;;;;5013797;28;20694;-66
2022/05/01 06:20:38;;;;;;;17.00;14.93;;;11.50;99.20;;;;;;5013814;28;20452;-67
2022/05/01 06:23:04;;;;;;;16.40;14.60;;;11.60;99.10;;;;;;5013154;28;20417;-67
2022/05/01 06:25:30;;;;;;;16.17;14.30;;;11.70;98.70;;;;;;5013604;28;20637;-67
2022/05/01 06:27:55;;;;;;;18.10;16.20;;;11.80;98.80;;;;;;5013769;28;20947;-67
2022/05/01 06:30:21;;;;;;;18.70;16.50;;;11.80;98.70;;;;;;5012744;28;20418;-67
2022/05/01 06:32:48;;;;;;;16.90;15.10;;;11.90;98.40;;;;;;4994353;28;20242;-69
2022/05/01 06:35:15;;;;;;;17.10;15.33;;;12.10;99.90;;;;;;4993928;28;20465;-79
2022/05/01 06:37:41;;;;;;;10.97;9.93;;;12.50;99.90;;;;;;4999625;28;20535;-70
2022/05/01 06:40:07;;;;;;;9.27;8.37;;;13.40;99.90;;;;;;5013485;28;20424;-69
2022/05/01 06:42:33;;;;;;;8.77;8.07;;;13.90;99.80;;;;;;5012831;28;20306;-70
2022/05/01 06:44:59;;;;;;;18.93;15.53;;;14.50;97.80;;;;;;5013426;28;20418;-70
2022/05/01 06:47:25;;;;;;;16.07;14.40;;;14.90;95.80;;;;;;5011707;28;20921;-70
2022/05/01 06:49:51;;;;;;;16.80;14.07;;;14.90;92.90;;;;;;5011891;28;20261;-71
2022/05/01 06:52:23;;;;;;;16.87;14.83;;;14.60;92.40;;;;;;5010394;28;20922;-70
2022/05/01 06:54:50;;;;;;;17.97;16.07;;;14.10;92.90;;;;;;5012349;28;20471;-70
2022/05/01 06:57:16;;;;;;;14.40;13.00;;;14.00;93.70;;;;;;5010248;28;20542;-70
2022/05/01 06:59:42;;;;;;;18.70;15.17;;;13.90;94.10;;;;;;5012175;28;20559;-71
2022/05/01 07:02:08;;;;;;;16.97;15.07;;;13.90;94.00;;;;;;5012014;28;20221;-70
2022/05/01 07:04:34;;;;;;;17.37;15.37;;;13.90;93.90;;;;;;5012115;28;20999;-70
2022/05/01 07:07:00;;;;;;;17.73;15.53;;;13.80;94.40;;;;;;5012696;28;20204;-70
2022/05/01 07:09:26;;;;;;;15.57;13.97;;;13.70;93.80;;;;;;5014129;28;20187;-70
2022/05/01 07:11:51;;;;;;;12.70;11.57;;;13.60;94.70;;;;;;5012301;28;20167;-70
2022/05/01 07:14:17;;;;;;;14.40;11.67;;;13.90;95.70;;;;;;5011542;28;20691;-72
2022/05/01 07:16:43;;;;;;;11.57;10.57;;;14.50;94.70;;;;;;5020480;28;20217;-70
2022/05/01 07:19:09;;;;;;;14.83;13.40;;;14.90;93.80;;;;;;5022897;28;20183;-70
2022/05/01 07:21:34;;;;;;;11.47;10.40;;;15.10;92.70;;;;;;5018199;28;20237;-70
2022/05/01 07:24:00;;;;;;;11.10;10.00;;;15.30;92.40;;;;;;5021975;28;20187;-70
2022/05/01 07:26:26;;;;;;;13.03;10.73;;;15.70;92.00;;;;;;5020957;28;20216;-70
2022/05/01 07:28:52;;;;;;;13.37;11.40;;;16.00;91.10;;;;;;5023387;28;20181;-70
2022/05/01 07:31:18;;;;;;;18.73;15.80;;;16.30;90.40;;;;;;5022762;28;20424;-71
2022/05/01 07:33:44;;;;;;;31.63;26.27;;;16.60;89.70;;;;;;5022989;28;20425;-70
2022/05/01 07:36:09;;;;;;;26.60;20.73;;;16.80;88.30;;;;;;5020649;28;20178;-71
2022/05/01 07:38:35;;;;;;;17.63;15.73;;;17.00;87.10;;;;;;5022825;28;20208;-70
2022/05/01 07:41:01;;;;;;;17.70;15.93;;;17.20;85.50;;;;;;5017688;28;20702;-70
2022/05/01 07:43:26;;;;;;;15.93;14.37;;;17.30;85.00;;;;;;5016169;28;20178;-70
2022/05/01 07:45:52;;;;;;;14.63;13.13;;;17.40;84.40;;;;;;5016796;28;20237;-70
2022/05/01 07:48:18;;;;;;;15.43;13.83;;;17.50;83.50;;;;;;5020678;28;20256;-72
2022/05/01 07:50:43;;;;;;;16.80;15.10;;;17.50;82.40;;;;;;5011323;28;20182;-72
2022/05/01 07:53:09;;;;;;;21.33;19.33;;;17.40;82.30;;;;;;5011742;28;20182;-70
2022/05/01 07:55:35;;;;;;;20.10;17.97;;;17.30;82.30;;;;;;5010826;28;20209;-71
2022/05/01 07:58:00;;;;;;;17.03;15.53;;;17.20;83.90;;;;;;5011661;28;20203;-70
2022/05/01 08:00:26;;;;;;;17.20;15.40;;;17.10;84.20;;;;;;5009516;28;20183;-71
2022/05/01 08:05:39;;;;;;;19.27;17.33;;;17.10;83.80;;;;;;5009282;28;20171;-70
2022/05/01 08:08:05;;;;;;;14.07;12.67;;;17.20;83.80;;;;;;5011340;28;20414;-71
2022/05/01 08:10:32;;;;;;;16.90;14.87;;;16.80;79.70;;;;;;5010685;28;20631;-70
2022/05/01 08:12:58;;;;;;;12.60;11.40;;;16.20;83.30;;;;;;5011273;28;20421;-70
2022/05/01 08:15:23;;;;;;;12.33;11.20;;;16.10;83.80;;;;;;5011300;28;20554;-73
2022/05/01 08:17:49;;;;;;;13.03;11.83;;;15.80;82.90;;;;;;5012427;28;20549;-72
2022/05/01 08:23:04;;;;;;;11.23;10.20;;;15.70;88.40;;;;;;5012620;28;20557;-72
2022/05/01 08:25:29;;;;;;;14.03;12.67;;;16.00;87.30;;;;;;5011935;28;20408;-72
2022/05/01 08:27:55;;;;;;;43.40;33.23;;;16.10;86.30;;;;;;5012475;28;20417;-71
2022/05/01 08:30:21;;;;;;;14.47;13.00;;;16.50;86.20;;;;;;5010793;28;20185;-74
2022/05/01 08:32:47;;;;;;;11.03;9.63;;;16.60;84.30;;;;;;5012721;28;20174;-71
2022/05/01 08:35:12;;;;;;;9.83;8.93;;;16.50;80.60;;;;;;5012489;28;20413;-73
2022/05/01 08:37:39;;;;;;;9.80;9.00;;;16.30;80.60;;;;;;5010466;28;20411;-71
2022/05/01 08:40:07;;;;;;;12.60;11.00;;;16.20;80.50;;;;;;5013013;28;20274;-71
2022/05/01 08:42:36;;;;;;;94.87;68.77;;;16.30;84.30;;;;;;5010204;28;20424;-70
2022/05/01 08:45:08;;;;;;;159.73;103.47;;;16.30;81.60;;;;;;5013362;28;20418;-73
2022/05/01 08:47:50;;;;;;;19.03;15.60;;;15.80;79.90;;;;;;5014925;28;20830;-73
2022/05/01 08:50:17;;;;;;;32.87;26.53;;;15.40;81.50;;;;;;4978783;28;20419;-73
2022/05/01 08:52:45;;;;;;;10.10;9.10;;;15.40;85.70;;;;;;4995497;28;20773;-73
2022/05/01 08:55:12;;;;;;;9.53;8.83;;;15.20;82.60;;;;;;4996179;28;20418;-73
2022/05/01 08:57:39;;;;;;;13.63;12.23;;;15.00;82.10;;;;;;4978071;28;20989;-73
2022/05/01 09:00:07;;;;;;;13.73;12.33;;;15.20;86.50;;;;;;4995889;28;20911;-72
2022/05/01 09:02:34;;;;;;;10.27;9.27;;;15.80;83.60;;;;;;4994334;28;20419;-72
2022/05/01 09:05:00;;;;;;;9.53;8.53;;;16.20;80.90;;;;;;4996037;28;20421;-72
2022/05/01 09:07:26;;;;;;;10.27;9.27;;;15.60;76.20;;;;;;4994197;28;20462;-73
2022/05/01 09:09:51;;;;;;;9.53;8.70;;;15.60;80.10;;;;;;4996127;28;20441;-73
2022/05/01 09:15:04;;;;;;;10.17;9.20;;;15.40;73.70;;;;;;4996244;28;20408;-72
2022/05/01 09:17:30;;;;;;;8.83;8.13;;;15.40;80.00;;;;;;4994865;28;20488;-73
2022/05/01 09:20:10;;;;;;;9.17;8.37;;;15.60;80.90;;;;;;4994249;28;20421;-73
2022/05/01 09:22:52;;;;;;;6.97;6.40;;;15.80;78.20;;;;;;4995144;28;20549;-72
2022/05/01 09:25:22;;;;;;;7.70;7.20;;;16.10;78.10;;;;;;4995619;28;20846;-72
2022/05/01 09:27:49;;;;;;;8.83;8.10;;;16.50;75.90;;;;;;4994380;28;20453;-73
2022/05/01 09:30:20;;;;;;;8.87;8.27;;;16.80;75.40;;;;;;4994464;28;20867;-73
2022/05/01 09:32:47;;;;;;;9.73;9.07;;;16.90;71.70;;;;;;4993476;28;20464;-73
2022/05/01 09:35:32;;;;;;;7.67;7.13;;;16.60;69.80;;;;;;4978251;28;20424;-73
2022/05/01 09:38:23;;;;;;;9.83;8.90;;;16.20;74.50;;;;;;4995107;28;20855;-73
2022/05/01 09:40:57;;;;;;;9.37;7.80;;;16.40;74.40;;;;;;4995584;28;20410;-73
2022/05/01 09:43:52;;;;;;;7.13;6.63;;;16.60;72.90;;;;;;4994598;28;20430;-79
2022/05/01 09:46:23;;;;;;;202.10;148.03;;;16.10;65.10;;;;;;4986519;28;20448;-74
2022/05/01 09:49:05;;;;;;;9.00;8.20;;;15.90;67.60;;;;;;5004577;28;20486;-73
2022/05/01 09:51:34;;;;;;;10.60;9.60;;;15.80;71.00;;;;;;4996681;28;20440;-73
2022/05/01 09:54:02;;;;;;;9.13;8.33;;;15.80;71.70;;;;;;5014427;28;20403;-72
2022/05/01 09:56:28;;;;;;;25.43;21.17;;;15.70;71.80;;;;;;5013193;28;20450;-73
2022/05/01 09:59:01;;;;;;;20.20;17.63;;;15.60;75.00;;;;;;5014682;28;20490;-73
2022/05/01 10:01:28;;;;;;;14.70;13.30;;;16.10;74.70;;;;;;5012741;28;20186;-73
2022/05/01 10:03:54;;;;;;;12.90;11.60;;;16.60;73.30;;;;;;5014838;28;20761;-73
2022/05/01 10:06:20;;;;;;;11.43;10.37;;;16.80;72.00;;;;;;5014309;28;20440;-72
2022/05/01 10:08:47;;;;;;;11.30;10.20;;;17.00;71.50;;;;;;5013789;28;20410;-73
2022/05/01 10:11:16;;;;;;;8.77;8.07;;;17.10;70.90;;;;;;5014734;28;20432;-72
2022/05/01 10:13:46;;;;;;;9.57;8.57;;;17.10;69.50;;;;;;5012633;28;20427;-73
2022/05/01 10:16:15;;;;;;;8.50;7.90;;;17.20;69.00;;;;;;5012990;28;20491;-76
2022/05/01 10:18:44;;;;;;;9.50;8.80;;;17.30;68.10;;;;;;5013307;28;20467;-72
2022/05/01 10:21:10;;;;;;;9.17;8.47;;;17.30;67.90;;;;;;5014249;28;20417;-72
2022/05/01 10:23:37;;;;;;;9.30;8.50;;;17.40;67.70;;;;;;5013710;28;20456;-72
2022/05/01 10:26:20;;;;;;;9.97;9.20;;;17.50;67.80;;;;;;5013859;28;20422;-72
2022/05/01 10:28:55;;;;;;;7.63;7.00;;;17.60;68.50;;;;;;5013532;28;20419;-73
2022/05/01 10:32:21;;;;;;;8.57;7.87;;;17.70;67.50;;;;;;5014178;28;20413;-72
2022/05/01 10:34:57;;;;;;;9.10;8.40;;;17.80;67.50;;;;;;5013541;28;20420;-73
2022/05/01 10:38:00;;;;;;;6.90;6.33;;;17.80;66.50;;;;;;5013591;28;21019;-72
2022/05/01 10:40:54;;;;;;;7.40;6.77;;;17.80;66.50;;;;;;5012025;28;20429;-85
2022/05/01 10:43:28;;;;;;;7.45;6.90;;;17.90;65.80;;;;;;5005402;28;20447;-72
2022/05/01 10:45:56;;;;;;;15.87;13.47;;;18.00;64.60;;;;;;5013635;28;20261;-73
2022/05/01 10:48:39;;;;;;;8.30;7.60;;;18.20;64.60;;;;;;5013015;28;20493;-72
2022/05/01 10:51:30;;;;;;;9.20;8.50;;;18.10;64.30;;;;;;5013716;28;20187;-72
2022/05/01 10:54:13;;;;;;;8.10;7.40;;;18.00;64.50;;;;;;5013379;28;20429;-72
2022/05/01 10:56:44;;;;;;;8.80;8.10;;;18.00;64.30;;;;;;5013194;28;20511;-73
2022/05/01 10:59:39;;;;;;;7.13;6.53;;;18.10;64.80;;;;;;5013710;28;20399;-73
2022/05/01 11:02:24;;;;;;;8.00;7.30;;;18.00;64.80;;;;;;5007985;28;20477;-73
2022/05/01 11:04:52;;;;;;;7.30;6.80;;;18.20;64.10;;;;;;5011614;28;20454;-72
2022/05/01 11:07:19;;;;;;;7.40;6.90;;;18.30;63.20;;;;;;5013423;28;20773;-72
2022/05/01 11:09:47;;;;;;;6.90;6.40;;;18.30;62.80;;;;;;5013078;28;20422;-73
2022/05/01 11:12:16;;;;;;;7.67;7.07;;;18.20;62.70;;;;;;5013080;28;20800;-73
2022/05/01 11:15:00;;;;;;;6.70;6.23;;;18.30;61.70;;;;;;5012708;28;20534;-73
2022/05/01 11:17:46;;;;;;;7.03;6.43;;;18.50;61.50;;;;;;5013311;28;20504;-73
2022/05/01 11:20:23;;;;;;;7.70;7.00;;;18.80;60.40;;;;;;5011659;28;20910;-73
2022/05/01 11:22:50;;;;;;;7.75;7.15;;;18.90;60.00;;;;;;5012087;28;20426;-72
2022/05/01 11:25:38;;;;;;;8.37;7.73;;;18.90;60.40;;;;;;5013121;28;20263;-72
2022/05/01 11:28:05;;;;;;;20.10;18.00;;;18.80;60.90;;;;;;5011964;28;20828;-73
2022/05/01 11:30:31;;;;;;;8.90;8.13;;;18.70;60.40;;;;;;5011626;28;20469;-73
2022/05/01 11:33:11;;;;;;;9.13;8.43;;;18.60;60.60;;;;;;5012040;28;20910;-71
2022/05/01 11:36:00;;;;;;;9.50;8.70;;;18.50;60.90;;;;;;5011963;28;20406;-71
2022/05/01 11:38:33;;;;;;;8.50;7.80;;;17.90;59.20;;;;;;5010940;28;20450;-71
2022/05/01 11:41:01;;;;;;;7.70;7.10;;;17.60;60.00;;;;;;5012931;28;20433;-72
2022/05/01 11:43:29;;;;;;;9.63;8.70;;;17.60;64.10;;;;;;5012925;28;20493;-73
2022/05/01 11:45:59;;;;;;;7.77;7.00;;;17.60;63.70;;;;;;5013074;28;20784;-73
2022/05/01 11:48:25;;;;;;;7.10;6.60;;;17.60;64.50;;;;;;5012446;28;20462;-72
2022/05/01 11:50:52;;;;;;;8.60;7.90;;;17.80;64.00;;;;;;5011096;28;20398;-72
2022/05/01 11:53:23;;;;;;;6.73;6.23;;;17.80;63.90;;;;;;5012789;28;20418;-72
2022/05/01 12:04:35;;;;;;;16.93;15.17;;;18.30;63.50;;;;;;5012272;28;20182;-73
2022/05/01 12:07:02;;;;;;;158.00;121.63;;;18.10;61.60;;;;;;5024972;28;20942;-73
2022/05/01 12:09:33;;;;;;;16.63;15.13;;;17.90;64.40;;;;;;5013224;28;20418;-73
2022/05/01 12:11:58;;;;;;;12.07;11.00;;;18.00;64.10;;;;;;5010079;28;20409;-74
2022/05/01 12:14:24;;;;;;;16.50;14.80;;;17.80;62.80;;;;;;5010472;28;20409;-72
2022/05/01 12:16:52;;;;;;;13.83;12.43;;;17.90;64.00;;;;;;5010271;28;20284;-73
2022/05/01 12:19:18;;;;;;;10.00;9.00;;;18.10;63.70;;;;;;5010927;28;20187;-73
2022/05/01 12:21:44;;;;;;;10.05;9.15;;;18.10;63.10;;;;;;5013781;28;20946;-73
2022/05/01 12:24:12;;;;;;;9.10;8.40;;;18.20;63.00;;;;;;5014823;28;20179;-73
2022/05/01 12:26:51;;;;;;;9.73;8.93;;;18.30;62.40;;;;;;5013526;28;20256;-74
2022/05/01 12:29:18;;;;;;;8.40;7.70;;;18.40;63.60;;;;;;5015239;28;20760;-73
2022/05/01 12:32:06;;;;;;;8.77;7.97;;;18.50;62.10;;;;;;5013226;28;20426;-73
2022/05/01 12:34:55;;;;;;;10.13;9.33;;;18.50;61.60;;;;;;5013054;28;20418;-80
2022/05/01 12:37:34;;;;;;;7.53;7.03;;;18.40;62.20;;;;;;5014655;28;20454;-70
2022/05/01 12:40:12;;;;;;;8.10;7.43;;;18.40;62.30;;;;;;5013561;28;20880;-70
2022/05/01 12:45:41;;;;;;;10.13;9.23;;;18.30;61.30;;;;;;5013090;28;20414;-71
2022/05/01 12:48:11;;;;;;;8.90;8.00;;;18.10;62.40;;;;;;5011932;28;20493;-71
2022/05/01 12:50:38;;;;;;;8.27;7.57;;;18.10;64.20;;;;;;5013996;28;20430;-71
2022/05/01 12:53:26;;;;;;;8.20;7.50;;;18.20;63.40;;;;;;5012134;28;20436;-70
2022/05/01 12:55:53;;;;;;;9.20;8.50;;;18.20;62.10;;;;;;5012653;28;20752;-70
2022/05/01 12:58:35;;;;;;;9.30;8.50;;;18.00;61.40;;;;;;5014057;28;20445;-71
2022/05/01 13:01:04;;;;;;;9.40;8.70;;;17.90;61.00;;;;;;5014401;28;20410;-71
2022/05/01 13:03:37;;;;;;;8.73;8.13;;;18.00;60.90;;;;;;5013153;28;20505;-71
2022/05/01 13:06:13;;;;;;;9.90;9.10;;;18.00;61.20;;;;;;5012146;28;20490;-70
2022/05/01 13:08:46;;;;;;;9.30;8.60;;;18.10;61.50;;;;;;5014042;28;20409;-71
2022/05/01 13:11:24;;;;;;;14.57;13.10;;;18.20;61.50;;;;;;5014179;28;20896;-71
2022/05/01 13:13:56;;;;;;;15.83;14.03;;;18.30;61.70;;;;;;5012289;28;20421;-71
2022/05/01 13:16:30;;;;;;;8.07;7.37;;;18.30;61.60;;;;;;5014052;28;20473;-70